sensor_id;sensor_type;location;lat;lon;timestamp;temperature;humidity
69006;SHT31;56061;51.748;19.620;2023-08-30T00:01:19;18.34;87.69
69006;SHT31;56061;51.748;19.620;2023-08-30T00:03:46;18.34;87.73
69006;SHT31;56061;51.748;19.620;2023-08-30T00:06:12;18.34;87.74
69006;SHT31;56061;51.748;19.620;2023-08-30T00:08:39;18.34;87.78
69006;SHT31;56061;51.748;19.620;2023-08-30T00:11:05;18.33;87.80
69006;SHT31;56061;51.748;19.620;2023-08-30T00:13:32;18.32;87.85
69006;SHT31;56061;51.748;19.620;2023-08-30T00:15:59;18.31;87.81
69006;SHT31;56061;51.748;19.620;2023-08-30T00:18:28;18.31;87.79
69006;SHT31;56061;51.748;19.620;2023-08-30T00:23:23;18.29;87.84
69006;SHT31;56061;51.748;19.620;2023-08-30T00:25:49;18.30;87.97
69006;SHT31;56061;51.748;19.620;2023-08-30T00:28:16;18.31;87.94
69006;SHT31;56061;51.748;19.620;2023-08-30T00:30:42;18.29;87.90
69006;SHT31;56061;51.748;19.620;2023-08-30T00:33:09;18.26;87.88
69006;SHT31;56061;51.748;19.620;2023-08-30T00:35:35;18.24;87.92
69006;SHT31;56061;51.748;19.620;2023-08-30T00:38:02;18.22;87.91
69006;SHT31;56061;51.748;19.620;2023-08-30T00:40:29;18.18;87.94
69006;SHT31;56061;51.748;19.620;2023-08-30T00:43:04;18.16;87.95
69006;SHT31;56061;51.748;19.620;2023-08-30T00:45:31;18.13;87.98
69006;SHT31;56061;51.748;19.620;2023-08-30T00:47:59;18.10;88.04
69006;SHT31;56061;51.748;19.620;2023-08-30T00:50:25;18.08;88.08
69006;SHT31;56061;51.748;19.620;2023-08-30T00:52:52;18.06;88.11
69006;SHT31;56061;51.748;19.620;2023-08-30T00:55:18;18.04;88.18
69006;SHT31;56061;51.748;19.620;2023-08-30T00:57:45;18.03;88.25
69006;SHT31;56061;51.748;19.620;2023-08-30T01:00:13;18.03;88.25
69006;SHT31;56061;51.748;19.620;2023-08-30T01:02:40;18.01;88.24
69006;SHT31;56061;51.748;19.620;2023-08-30T01:05:07;18.01;88.26
69006;SHT31;56061;51.748;19.620;2023-08-30T01:07:34;18.00;88.33
69006;SHT31;56061;51.748;19.620;2023-08-30T01:10:01;18.01;88.35
69006;SHT31;56061;51.748;19.620;2023-08-30T01:12:29;18.01;88.32
69006;SHT31;56061;51.748;19.620;2023-08-30T01:15:10;17.99;88.29
69006;SHT31;56061;51.748;19.620;2023-08-30T01:17:41;17.98;88.32
69006;SHT31;56061;51.748;19.620;2023-08-30T01:20:09;17.94;88.22
69006;SHT31;56061;51.748;19.620;2023-08-30T01:22:54;17.91;88.21
69006;SHT31;56061;51.748;19.620;2023-08-30T01:25:32;17.84;88.21
69006;SHT31;56061;51.748;19.620;2023-08-30T01:28:07;17.79;88.27
69006;SHT31;56061;51.748;19.620;2023-08-30T01:30:37;17.75;88.23
69006;SHT31;56061;51.748;19.620;2023-08-30T01:33:07;17.68;88.20
69006;SHT31;56061;51.748;19.620;2023-08-30T01:35:35;17.63;88.22
69006;SHT31;56061;51.748;19.620;2023-08-30T01:38:03;17.60;88.24
69006;SHT31;56061;51.748;19.620;2023-08-30T01:40:33;17.56;88.24
69006;SHT31;56061;51.748;19.620;2023-08-30T01:43:05;17.53;88.26
69006;SHT31;56061;51.748;19.620;2023-08-30T01:45:34;17.49;88.30
69006;SHT31;56061;51.748;19.620;2023-08-30T01:48:04;17.48;88.32
69006;SHT31;56061;51.748;19.620;2023-08-30T01:50:35;17.45;88.38
69006;SHT31;56061;51.748;19.620;2023-08-30T01:53:02;17.43;88.40
69006;SHT31;56061;51.748;19.620;2023-08-30T01:55:29;17.42;88.40
69006;SHT31;56061;51.748;19.620;2023-08-30T01:57:57;17.42;88.48
69006;SHT31;56061;51.748;19.620;2023-08-30T02:00:24;17.41;88.42
69006;SHT31;56061;51.748;19.620;2023-08-30T02:02:51;17.40;88.47
69006;SHT31;56061;51.748;19.620;2023-08-30T02:05:17;17.39;88.43
69006;SHT31;56061;51.748;19.620;2023-08-30T02:10:23;17.38;88.58
69006;SHT31;56061;51.748;19.620;2023-08-30T02:12:56;17.39;88.50
69006;SHT31;56061;51.748;19.620;2023-08-30T02:15:25;17.40;88.51
69006;SHT31;56061;51.748;19.620;2023-08-30T02:17:55;17.41;88.52
69006;SHT31;56061;51.748;19.620;2023-08-30T02:20:23;17.43;88.46
69006;SHT31;56061;51.748;19.620;2023-08-30T02:22:49;17.42;88.46
69006;SHT31;56061;51.748;19.620;2023-08-30T02:25:16;17.42;88.46
69006;SHT31;56061;51.748;19.620;2023-08-30T02:27:43;17.42;88.47
69006;SHT31;56061;51.748;19.620;2023-08-30T02:30:10;17.43;88.48
69006;SHT31;56061;51.748;19.620;2023-08-30T02:32:37;17.43;88.41
69006;SHT31;56061;51.748;19.620;2023-08-30T02:35:03;17.41;88.40
69006;SHT31;56061;51.748;19.620;2023-08-30T02:37:30;17.40;88.42
69006;SHT31;56061;51.748;19.620;2023-08-30T02:39:57;17.39;88.42
69006;SHT31;56061;51.748;19.620;2023-08-30T02:42:23;17.38;88.45
69006;SHT31;56061;51.748;19.620;2023-08-30T02:44:52;17.38;88.49
69006;SHT31;56061;51.748;19.620;2023-08-30T02:47:19;17.40;88.54
69006;SHT31;56061;51.748;19.620;2023-08-30T02:49:45;17.44;88.52
69006;SHT31;56061;51.748;19.620;2023-08-30T02:52:12;17.45;88.52
69006;SHT31;56061;51.748;19.620;2023-08-30T02:54:38;17.47;88.54
69006;SHT31;56061;51.748;19.620;2023-08-30T02:57:05;17.48;88.50
69006;SHT31;56061;51.748;19.620;2023-08-30T02:59:31;17.49;88.50
69006;SHT31;56061;51.748;19.620;2023-08-30T03:01:58;17.48;88.45
69006;SHT31;56061;51.748;19.620;2023-08-30T03:04:24;17.45;88.41
69006;SHT31;56061;51.748;19.620;2023-08-30T03:06:50;17.42;88.41
69006;SHT31;56061;51.748;19.620;2023-08-30T03:09:17;17.40;88.43
69006;SHT31;56061;51.748;19.620;2023-08-30T03:11:43;17.39;88.43
69006;SHT31;56061;51.748;19.620;2023-08-30T03:14:10;17.39;88.43
69006;SHT31;56061;51.748;19.620;2023-08-30T03:16:36;17.39;88.37
69006;SHT31;56061;51.748;19.620;2023-08-30T03:19:03;17.36;88.31
69006;SHT31;56061;51.748;19.620;2023-08-30T03:21:29;17.33;88.24
69006;SHT31;56061;51.748;19.620;2023-08-30T03:23:56;17.30;88.27
69006;SHT31;56061;51.748;19.620;2023-08-30T03:26:22;17.25;88.29
69006;SHT31;56061;51.748;19.620;2023-08-30T03:28:49;17.24;88.33
69006;SHT31;56061;51.748;19.620;2023-08-30T03:31:16;17.23;88.39
69006;SHT31;56061;51.748;19.620;2023-08-30T03:33:45;17.21;88.39
69006;SHT31;56061;51.748;19.620;2023-08-30T03:36:14;17.19;88.40
69006;SHT31;56061;51.748;19.620;2023-08-30T03:38:43;17.18;88.42
69006;SHT31;56061;51.748;19.620;2023-08-30T03:41:11;17.18;88.46
69006;SHT31;56061;51.748;19.620;2023-08-30T03:43:38;17.17;88.42
69006;SHT31;56061;51.748;19.620;2023-08-30T03:46:05;17.17;88.40
69006;SHT31;56061;51.748;19.620;2023-08-30T03:48:31;17.13;88.35
69006;SHT31;56061;51.748;19.620;2023-08-30T03:50:58;17.11;88.42
69006;SHT31;56061;51.748;19.620;2023-08-30T03:53:25;17.10;88.45
69006;SHT31;56061;51.748;19.620;2023-08-30T03:55:51;17.10;88.50
69006;SHT31;56061;51.748;19.620;2023-08-30T03:58:18;17.10;88.51
69006;SHT31;56061;51.748;19.620;2023-08-30T04:00:46;17.08;88.54
69006;SHT31;56061;51.748;19.620;2023-08-30T04:03:13;17.06;88.58
69006;SHT31;56061;51.748;19.620;2023-08-30T04:05:41;17.05;88.59
69006;SHT31;56061;51.748;19.620;2023-08-30T04:08:09;17.02;88.63
69006;SHT31;56061;51.748;19.620;2023-08-30T04:10:37;17.04;88.73
69006;SHT31;56061;51.748;19.620;2023-08-30T04:13:05;17.03;88.64
69006;SHT31;56061;51.748;19.620;2023-08-30T04:15:33;17.00;88.59
69006;SHT31;56061;51.748;19.620;2023-08-30T04:18:04;16.97;88.59
69006;SHT31;56061;51.748;19.620;2023-08-30T04:20:33;16.95;88.61
69006;SHT31;56061;51.748;19.620;2023-08-30T04:23:00;16.93;88.60
69006;SHT31;56061;51.748;19.620;2023-08-30T04:25:31;16.92;88.60
69006;SHT31;56061;51.748;19.620;2023-08-30T04:28:00;16.89;88.59
69006;SHT31;56061;51.748;19.620;2023-08-30T04:30:26;16.88;88.65
69006;SHT31;56061;51.748;19.620;2023-08-30T04:32:53;16.86;88.67
69006;SHT31;56061;51.748;19.620;2023-08-30T04:35:19;16.84;88.72
69006;SHT31;56061;51.748;19.620;2023-08-30T04:37:46;16.85;88.81
69006;SHT31;56061;51.748;19.620;2023-08-30T04:40:14;16.86;88.82
69006;SHT31;56061;51.748;19.620;2023-08-30T04:42:40;16.86;88.75
69006;SHT31;56061;51.748;19.620;2023-08-30T04:45:07;16.86;88.70
69006;SHT31;56061;51.748;19.620;2023-08-30T04:47:35;16.87;88.75
69006;SHT31;56061;51.748;19.620;2023-08-30T04:50:02;16.87;88.71
69006;SHT31;56061;51.748;19.620;2023-08-30T04:52:29;16.89;88.75
69006;SHT31;56061;51.748;19.620;2023-08-30T04:54:56;16.90;88.69
69006;SHT31;56061;51.748;19.620;2023-08-30T04:57:22;16.90;88.67
69006;SHT31;56061;51.748;19.620;2023-08-30T04:59:49;16.91;88.68
69006;SHT31;56061;51.748;19.620;2023-08-30T05:02:15;16.90;88.65
69006;SHT31;56061;51.748;19.620;2023-08-30T05:04:42;16.90;88.58
69006;SHT31;56061;51.748;19.620;2023-08-30T05:07:08;16.89;88.59
69006;SHT31;56061;51.748;19.620;2023-08-30T05:09:35;16.88;88.57
69006;SHT31;56061;51.748;19.620;2023-08-30T05:12:01;16.88;88.65
69006;SHT31;56061;51.748;19.620;2023-08-30T05:14:28;16.90;88.68
69006;SHT31;56061;51.748;19.620;2023-08-30T05:16:55;16.92;88.72
69006;SHT31;56061;51.748;19.620;2023-08-30T05:19:21;16.93;88.62
69006;SHT31;56061;51.748;19.620;2023-08-30T05:21:48;16.92;88.59
69006;SHT31;56061;51.748;19.620;2023-08-30T05:24:17;16.90;88.59
69006;SHT31;56061;51.748;19.620;2023-08-30T05:26:44;16.92;88.70
69006;SHT31;56061;51.748;19.620;2023-08-30T05:29:13;16.93;88.70
69006;SHT31;56061;51.748;19.620;2023-08-30T05:31:41;16.94;88.62
69006;SHT31;56061;51.748;19.620;2023-08-30T05:34:09;16.94;88.61
69006;SHT31;56061;51.748;19.620;2023-08-30T05:36:36;16.93;88.62
69006;SHT31;56061;51.748;19.620;2023-08-30T05:39:03;16.91;88.52
69006;SHT31;56061;51.748;19.620;2023-08-30T05:41:29;16.89;88.58
69006;SHT31;56061;51.748;19.620;2023-08-30T05:43:56;16.88;88.67
69006;SHT31;56061;51.748;19.620;2023-08-30T05:46:23;16.88;88.65
69006;SHT31;56061;51.748;19.620;2023-08-30T05:48:50;16.89;88.72
69006;SHT31;56061;51.748;19.620;2023-08-30T05:51:16;16.89;88.74
69006;SHT31;56061;51.748;19.620;2023-08-30T05:53:43;16.88;88.71
69006;SHT31;56061;51.748;19.620;2023-08-30T05:56:09;16.88;88.76
69006;SHT31;56061;51.748;19.620;2023-08-30T05:58:35;16.89;88.80
69006;SHT31;56061;51.748;19.620;2023-08-30T06:01:04;16.92;88.80
69006;SHT31;56061;51.748;19.620;2023-08-30T06:03:32;16.94;88.79
69006;SHT31;56061;51.748;19.620;2023-08-30T06:05:59;16.96;88.76
69006;SHT31;56061;51.748;19.620;2023-08-30T06:08:25;16.98;88.68
69006;SHT31;56061;51.748;19.620;2023-08-30T06:10:52;16.99;88.57
69006;SHT31;56061;51.748;19.620;2023-08-30T06:13:18;16.99;88.51
69006;SHT31;56061;51.748;19.620;2023-08-30T06:15:45;17.00;88.59
69006;SHT31;56061;51.748;19.620;2023-08-30T06:18:16;17.03;88.69
69006;SHT31;56061;51.748;19.620;2023-08-30T06:20:42;17.06;88.73
69006;SHT31;56061;51.748;19.620;2023-08-30T06:23:09;17.09;88.69
69006;SHT31;56061;51.748;19.620;2023-08-30T06:25:39;17.11;88.63
69006;SHT31;56061;51.748;19.620;2023-08-30T06:28:06;17.10;88.43
69006;SHT31;56061;51.748;19.620;2023-08-30T06:30:33;17.10;88.44
69006;SHT31;56061;51.748;19.620;2023-08-30T06:32:59;17.11;88.43
69006;SHT31;56061;51.748;19.620;2023-08-30T06:35:26;17.14;88.40
69006;SHT31;56061;51.748;19.620;2023-08-30T06:37:53;17.14;88.34
69006;SHT31;56061;51.748;19.620;2023-08-30T06:40:19;17.16;88.27
69006;SHT31;56061;51.748;19.620;2023-08-30T06:42:46;17.17;88.25
69006;SHT31;56061;51.748;19.620;2023-08-30T06:45:12;17.16;88.24
69006;SHT31;56061;51.748;19.620;2023-08-30T06:50:23;17.13;88.28
69006;SHT31;56061;51.748;19.620;2023-08-30T06:52:50;17.13;88.23
69006;SHT31;56061;51.748;19.620;2023-08-30T06:55:16;17.14;88.16
69006;SHT31;56061;51.748;19.620;2023-08-30T06:57:47;17.11;88.08
69006;SHT31;56061;51.748;19.620;2023-08-30T07:00:16;17.09;88.14
69006;SHT31;56061;51.748;19.620;2023-08-30T07:02:44;17.10;88.20
69006;SHT31;56061;51.748;19.620;2023-08-30T07:05:13;17.08;88.10
69006;SHT31;56061;51.748;19.620;2023-08-30T07:07:39;17.06;88.10
69006;SHT31;56061;51.748;19.620;2023-08-30T07:10:06;17.04;88.11
69006;SHT31;56061;51.748;19.620;2023-08-30T07:12:33;17.05;88.15
69006;SHT31;56061;51.748;19.620;2023-08-30T07:14:59;17.08;88.21
69006;SHT31;56061;51.748;19.620;2023-08-30T07:17:26;17.12;88.23
69006;SHT31;56061;51.748;19.620;2023-08-30T07:20:15;17.17;88.28
69006;SHT31;56061;51.748;19.620;2023-08-30T07:22:42;17.20;88.17
69006;SHT31;56061;51.748;19.620;2023-08-30T07:25:08;17.21;88.10
69006;SHT31;56061;51.748;19.620;2023-08-30T07:27:39;17.22;88.12
69006;SHT31;56061;51.748;19.620;2023-08-30T07:30:06;17.24;88.12
69006;SHT31;56061;51.748;19.620;2023-08-30T07:32:33;17.22;88.06
69006;SHT31;56061;51.748;19.620;2023-08-30T07:35:00;17.23;88.01
69006;SHT31;56061;51.748;19.620;2023-08-30T07:37:27;17.21;87.85
69006;SHT31;56061;51.748;19.620;2023-08-30T07:39:54;17.18;87.93
69006;SHT31;56061;51.748;19.620;2023-08-30T07:42:21;17.19;88.03
69006;SHT31;56061;51.748;19.620;2023-08-30T07:44:47;17.18;87.89
69006;SHT31;56061;51.748;19.620;2023-08-30T07:47:14;17.18;87.90
69006;SHT31;56061;51.748;19.620;2023-08-30T07:49:40;17.18;87.88
69006;SHT31;56061;51.748;19.620;2023-08-30T07:52:08;17.18;87.90
69006;SHT31;56061;51.748;19.620;2023-08-30T07:54:39;17.20;87.89
69006;SHT31;56061;51.748;19.620;2023-08-30T07:57:07;17.20;87.80
69006;SHT31;56061;51.748;19.620;2023-08-30T07:59:37;17.21;87.91
69006;SHT31;56061;51.748;19.620;2023-08-30T08:02:05;17.23;88.00
69006;SHT31;56061;51.748;19.620;2023-08-30T08:04:34;17.23;87.82
69006;SHT31;56061;51.748;19.620;2023-08-30T08:07:04;17.24;87.90
69006;SHT31;56061;51.748;19.620;2023-08-30T08:09:31;17.24;87.83
69006;SHT31;56061;51.748;19.620;2023-08-30T08:11:58;17.25;87.80
69006;SHT31;56061;51.748;19.620;2023-08-30T08:14:25;17.25;87.90
69006;SHT31;56061;51.748;19.620;2023-08-30T08:16:52;17.25;87.76
69006;SHT31;56061;51.748;19.620;2023-08-30T08:19:19;17.25;87.70
69006;SHT31;56061;51.748;19.620;2023-08-30T08:21:50;17.24;87.55
69006;SHT31;56061;51.748;19.620;2023-08-30T08:24:17;17.21;87.49
69006;SHT31;56061;51.748;19.620;2023-08-30T08:26:43;17.18;87.46
69006;SHT31;56061;51.748;19.620;2023-08-30T08:29:09;17.17;87.52
69006;SHT31;56061;51.748;19.620;2023-08-30T08:31:36;17.16;87.56
69006;SHT31;56061;51.748;19.620;2023-08-30T08:34:06;17.16;87.59
69006;SHT31;56061;51.748;19.620;2023-08-30T08:36:40;17.17;87.59
69006;SHT31;56061;51.748;19.620;2023-08-30T08:39:08;17.17;87.57
69006;SHT31;56061;51.748;19.620;2023-08-30T08:41:38;17.19;87.61
69006;SHT31;56061;51.748;19.620;2023-08-30T08:44:10;17.21;87.57
69006;SHT31;56061;51.748;19.620;2023-08-30T08:46:39;17.23;87.49
69006;SHT31;56061;51.748;19.620;2023-08-30T08:49:16;17.22;87.48
69006;SHT31;56061;51.748;19.620;2023-08-30T08:51:44;17.21;87.44
69006;SHT31;56061;51.748;19.620;2023-08-30T08:54:12;17.20;87.37
69006;SHT31;56061;51.748;19.620;2023-08-30T08:56:39;17.21;87.29
69006;SHT31;56061;51.748;19.620;2023-08-30T08:59:06;17.24;87.31
69006;SHT31;56061;51.748;19.620;2023-08-30T09:01:35;17.24;87.29
69006;SHT31;56061;51.748;19.620;2023-08-30T09:04:06;17.25;87.23
69006;SHT31;56061;51.748;19.620;2023-08-30T09:06:37;17.28;87.21
69006;SHT31;56061;51.748;19.620;2023-08-30T09:09:10;17.29;87.10
69006;SHT31;56061;51.748;19.620;2023-08-30T09:11:37;17.32;87.12
69006;SHT31;56061;51.748;19.620;2023-08-30T09:14:15;17.38;87.10
69006;SHT31;56061;51.748;19.620;2023-08-30T09:16:43;17.44;86.99
69006;SHT31;56061;51.748;19.620;2023-08-30T09:19:20;17.49;86.99
69006;SHT31;56061;51.748;19.620;2023-08-30T09:21:53;17.53;86.93
69006;SHT31;56061;51.748;19.620;2023-08-30T09:24:21;17.56;86.78
69006;SHT31;56061;51.748;19.620;2023-08-30T09:26:48;17.58;86.86
69006;SHT31;56061;51.748;19.620;2023-08-30T09:29:20;17.60;86.58
69006;SHT31;56061;51.748;19.620;2023-08-30T09:31:52;17.59;86.41
69006;SHT31;56061;51.748;19.620;2023-08-30T09:34:22;17.59;86.40
69006;SHT31;56061;51.748;19.620;2023-08-30T09:36:53;17.56;86.38
69006;SHT31;56061;51.748;19.620;2023-08-30T09:39:21;17.56;86.30
69006;SHT31;56061;51.748;19.620;2023-08-30T09:41:48;17.56;86.24
69006;SHT31;56061;51.748;19.620;2023-08-30T09:44:16;17.54;86.30
69006;SHT31;56061;51.748;19.620;2023-08-30T09:46:46;17.54;86.36
69006;SHT31;56061;51.748;19.620;2023-08-30T09:49:23;17.50;86.37
69006;SHT31;56061;51.748;19.620;2023-08-30T09:51:53;17.45;86.40
69006;SHT31;56061;51.748;19.620;2023-08-30T09:54:24;17.39;86.36
69006;SHT31;56061;51.748;19.620;2023-08-30T09:56:54;17.31;86.45
69006;SHT31;56061;51.748;19.620;2023-08-30T09:59:24;17.27;86.63
69006;SHT31;56061;51.748;19.620;2023-08-30T10:01:52;17.23;86.67
69006;SHT31;56061;51.748;19.620;2023-08-30T10:04:20;17.19;86.79
69006;SHT31;56061;51.748;19.620;2023-08-30T10:06:47;17.15;86.88
69006;SHT31;56061;51.748;19.620;2023-08-30T10:09:15;17.12;87.07
69006;SHT31;56061;51.748;19.620;2023-08-30T10:12:03;17.10;87.29
69006;SHT31;56061;51.748;19.620;2023-08-30T10:14:31;17.10;87.50
69006;SHT31;56061;51.748;19.620;2023-08-30T10:17:02;17.11;87.56
69006;SHT31;56061;51.748;19.620;2023-08-30T10:19:29;17.10;87.58
69006;SHT31;56061;51.748;19.620;2023-08-30T10:24:29;17.12;87.90
69006;SHT31;56061;51.748;19.620;2023-08-30T10:27:22;17.16;87.80
69006;SHT31;56061;51.748;19.620;2023-08-30T10:29:50;17.20;87.72
69006;SHT31;56061;51.748;19.620;2023-08-30T10:32:21;17.26;87.68
69006;SHT31;56061;51.748;19.620;2023-08-30T10:34:49;17.31;87.52
69006;SHT31;56061;51.748;19.620;2023-08-30T10:37:21;17.36;87.59
69006;SHT31;56061;51.748;19.620;2023-08-30T10:39:52;17.44;87.56
69006;SHT31;56061;51.748;19.620;2023-08-30T10:42:24;17.53;87.56
69006;SHT31;56061;51.748;19.620;2023-08-30T10:47:39;17.66;87.50
69006;SHT31;56061;51.748;19.620;2023-08-30T10:50:08;17.69;87.44
69006;SHT31;56061;51.748;19.620;2023-08-30T10:52:37;17.71;87.41
69006;SHT31;56061;51.748;19.620;2023-08-30T10:55:08;17.71;87.22
69006;SHT31;56061;51.748;19.620;2023-08-30T10:57:40;17.68;87.09
69006;SHT31;56061;51.748;19.620;2023-08-30T11:00:22;17.66;87.10
69006;SHT31;56061;51.748;19.620;2023-08-30T11:02:50;17.63;86.95
69006;SHT31;56061;51.748;19.620;2023-08-30T11:05:20;17.63;87.12
69006;SHT31;56061;51.748;19.620;2023-08-30T11:07:50;17.65;87.06
69006;SHT31;56061;51.748;19.620;2023-08-30T11:10:18;17.68;87.11
69006;SHT31;56061;51.748;19.620;2023-08-30T11:12:46;17.71;86.96
69006;SHT31;56061;51.748;19.620;2023-08-30T11:15:16;17.76;86.87
69006;SHT31;56061;51.748;19.620;2023-08-30T11:17:44;17.82;86.70
69006;SHT31;56061;51.748;19.620;2023-08-30T11:20:15;17.87;86.65
69006;SHT31;56061;51.748;19.620;2023-08-30T11:22:45;17.92;86.49
69006;SHT31;56061;51.748;19.620;2023-08-30T11:25:14;17.93;86.42
69006;SHT31;56061;51.748;19.620;2023-08-30T11:27:44;17.97;86.37
69006;SHT31;56061;51.748;19.620;2023-08-30T11:30:12;18.02;86.38
69006;SHT31;56061;51.748;19.620;2023-08-30T11:32:39;18.06;86.31
69006;SHT31;56061;51.748;19.620;2023-08-30T11:35:10;18.10;86.26
69006;SHT31;56061;51.748;19.620;2023-08-30T11:37:37;18.10;86.11
69006;SHT31;56061;51.748;19.620;2023-08-30T11:40:06;18.14;86.10
69006;SHT31;56061;51.748;19.620;2023-08-30T11:42:34;18.17;85.87
69006;SHT31;56061;51.748;19.620;2023-08-30T11:45:00;18.16;85.67
69006;SHT31;56061;51.748;19.620;2023-08-30T11:47:28;18.14;85.72
69006;SHT31;56061;51.748;19.620;2023-08-30T11:49:56;18.13;85.80
69006;SHT31;56061;51.748;19.620;2023-08-30T11:52:24;18.13;85.68
69006;SHT31;56061;51.748;19.620;2023-08-30T11:54:52;18.12;85.87
69006;SHT31;56061;51.748;19.620;2023-08-30T11:57:20;18.13;85.91
69006;SHT31;56061;51.748;19.620;2023-08-30T11:59:47;18.13;85.72
69006;SHT31;56061;51.748;19.620;2023-08-30T12:02:16;18.18;85.83
69006;SHT31;56061;51.748;19.620;2023-08-30T12:04:45;18.26;85.73
69006;SHT31;56061;51.748;19.620;2023-08-30T12:07:23;18.35;85.56
69006;SHT31;56061;51.748;19.620;2023-08-30T12:09:51;18.46;85.48
69006;SHT31;56061;51.748;19.620;2023-08-30T12:12:18;18.56;85.37
69006;SHT31;56061;51.748;19.620;2023-08-30T12:14:45;18.63;85.34
69006;SHT31;56061;51.748;19.620;2023-08-30T12:17:20;18.69;85.22
69006;SHT31;56061;51.748;19.620;2023-08-30T12:19:47;18.75;85.21
69006;SHT31;56061;51.748;19.620;2023-08-30T12:22:35;18.76;85.19
69006;SHT31;56061;51.748;19.620;2023-08-30T12:25:26;18.77;85.14
69006;SHT31;56061;51.748;19.620;2023-08-30T12:27:53;18.75;84.87
69006;SHT31;56061;51.748;19.620;2023-08-30T12:30:20;18.71;84.84
69006;SHT31;56061;51.748;19.620;2023-08-30T12:32:46;18.67;84.84
69006;SHT31;56061;51.748;19.620;2023-08-30T12:35:14;18.64;84.65
69006;SHT31;56061;51.748;19.620;2023-08-30T12:37:41;18.58;84.53
69006;SHT31;56061;51.748;19.620;2023-08-30T12:40:09;18.56;84.44
69006;SHT31;56061;51.748;19.620;2023-08-30T12:42:36;18.54;84.33
69006;SHT31;56061;51.748;19.620;2023-08-30T12:45:04;18.56;84.46
69006;SHT31;56061;51.748;19.620;2023-08-30T12:47:31;18.63;84.50
69006;SHT31;56061;51.748;19.620;2023-08-30T12:49:58;18.71;84.40
69006;SHT31;56061;51.748;19.620;2023-08-30T12:52:24;18.81;84.35
69006;SHT31;56061;51.748;19.620;2023-08-30T12:54:51;18.92;84.33
69006;SHT31;56061;51.748;19.620;2023-08-30T12:57:18;19.03;84.30
69006;SHT31;56061;51.748;19.620;2023-08-30T12:59:45;19.12;83.60
69006;SHT31;56061;51.748;19.620;2023-08-30T13:02:11;19.18;83.48
69006;SHT31;56061;51.748;19.620;2023-08-30T13:04:38;19.23;83.27
69006;SHT31;56061;51.748;19.620;2023-08-30T13:07:04;19.26;83.24
69006;SHT31;56061;51.748;19.620;2023-08-30T13:09:31;19.28;83.06
69006;SHT31;56061;51.748;19.620;2023-08-30T13:11:58;19.31;82.97
69006;SHT31;56061;51.748;19.620;2023-08-30T13:14:24;19.38;83.16
69006;SHT31;56061;51.748;19.620;2023-08-30T13:16:51;19.41;83.16
69006;SHT31;56061;51.748;19.620;2023-08-30T13:19:17;19.44;82.96
69006;SHT31;56061;51.748;19.620;2023-08-30T13:21:44;19.52;82.88
69006;SHT31;56061;51.748;19.620;2023-08-30T13:24:10;19.63;82.64
69006;SHT31;56061;51.748;19.620;2023-08-30T13:26:37;19.75;82.39
69006;SHT31;56061;51.748;19.620;2023-08-30T13:29:04;19.86;82.23
69006;SHT31;56061;51.748;19.620;2023-08-30T13:31:30;19.92;82.23
69006;SHT31;56061;51.748;19.620;2023-08-30T13:33:57;19.91;81.65
69006;SHT31;56061;51.748;19.620;2023-08-30T13:36:24;19.87;81.53
69006;SHT31;56061;51.748;19.620;2023-08-30T13:38:51;19.82;81.34
69006;SHT31;56061;51.748;19.620;2023-08-30T13:41:19;19.76;81.25
69006;SHT31;56061;51.748;19.620;2023-08-30T13:43:45;19.68;81.30
69006;SHT31;56061;51.748;19.620;2023-08-30T13:46:12;19.61;81.38
69006;SHT31;56061;51.748;19.620;2023-08-30T13:48:38;19.57;81.62
69006;SHT31;56061;51.748;19.620;2023-08-30T13:51:05;19.54;81.71
69006;SHT31;56061;51.748;19.620;2023-08-30T13:53:31;19.53;81.74
69006;SHT31;56061;51.748;19.620;2023-08-30T13:55:58;19.49;81.69
69006;SHT31;56061;51.748;19.620;2023-08-30T13:58:24;19.47;81.56
69006;SHT31;56061;51.748;19.620;2023-08-30T14:00:51;19.43;81.31
69006;SHT31;56061;51.748;19.620;2023-08-30T14:03:17;19.39;81.56
69006;SHT31;56061;51.748;19.620;2023-08-30T14:05:44;19.35;81.73
69006;SHT31;56061;51.748;19.620;2023-08-30T14:08:10;19.29;81.46
69006;SHT31;56061;51.748;19.620;2023-08-30T14:10:38;19.22;81.66
69006;SHT31;56061;51.748;19.620;2023-08-30T14:13:04;19.14;81.77
69006;SHT31;56061;51.748;19.620;2023-08-30T14:15:31;19.03;81.66
69006;SHT31;56061;51.748;19.620;2023-08-30T14:17:58;18.90;81.55
69006;SHT31;56061;51.748;19.620;2023-08-30T14:20:24;18.82;81.77
69006;SHT31;56061;51.748;19.620;2023-08-30T14:22:51;18.80;81.86
69006;SHT31;56061;51.748;19.620;2023-08-30T14:25:17;18.84;81.93
69006;SHT31;56061;51.748;19.620;2023-08-30T14:27:44;18.90;81.95
69006;SHT31;56061;51.748;19.620;2023-08-30T14:30:11;18.98;81.82
69006;SHT31;56061;51.748;19.620;2023-08-30T14:32:37;19.04;81.82
69006;SHT31;56061;51.748;19.620;2023-08-30T14:35:04;19.09;81.71
69006;SHT31;56061;51.748;19.620;2023-08-30T14:37:31;19.12;81.56
69006;SHT31;56061;51.748;19.620;2023-08-30T14:39:58;19.12;81.52
69006;SHT31;56061;51.748;19.620;2023-08-30T14:42:25;19.14;81.61
69006;SHT31;56061;51.748;19.620;2023-08-30T14:45:00;19.18;81.78
69006;SHT31;56061;51.748;19.620;2023-08-30T14:47:28;19.20;81.61
69006;SHT31;56061;51.748;19.620;2023-08-30T14:52:27;19.17;82.01
69006;SHT31;56061;51.748;19.620;2023-08-30T14:54:58;19.15;82.24
69006;SHT31;56061;51.748;19.620;2023-08-30T14:57:25;19.11;82.29
69006;SHT31;56061;51.748;19.620;2023-08-30T14:59:52;19.04;82.19
69006;SHT31;56061;51.748;19.620;2023-08-30T15:02:19;18.98;82.21
69006;SHT31;56061;51.748;19.620;2023-08-30T15:04:45;18.90;82.07
69006;SHT31;56061;51.748;19.620;2023-08-30T15:10:04;18.70;82.01
69006;SHT31;56061;51.748;19.620;2023-08-30T15:12:30;18.58;82.15
69006;SHT31;56061;51.748;19.620;2023-08-30T15:17:29;18.39;82.11
69006;SHT31;56061;51.748;19.620;2023-08-30T15:19:56;18.30;82.27
69006;SHT31;56061;51.748;19.620;2023-08-30T15:22:22;18.23;82.32
69006;SHT31;56061;51.748;19.620;2023-08-30T15:24:49;18.18;82.44
69006;SHT31;56061;51.748;19.620;2023-08-30T15:27:15;18.10;82.39
69006;SHT31;56061;51.748;19.620;2023-08-30T15:29:54;18.04;82.36
69006;SHT31;56061;51.748;19.620;2023-08-30T15:32:22;17.96;82.38
69006;SHT31;56061;51.748;19.620;2023-08-30T15:34:49;17.94;82.67
69006;SHT31;56061;51.748;19.620;2023-08-30T15:37:16;17.94;82.83
69006;SHT31;56061;51.748;19.620;2023-08-30T15:39:43;17.95;82.93
69006;SHT31;56061;51.748;19.620;2023-08-30T15:45:03;17.95;82.86